sensor_id;sensor_type;location;lat;lon;timestamp;P1;durP1;ratioP1;P2;durP2;ratioP2
10059;SDS011;5069;49.306;8.636;2023-05-07T00:02:06;2.70;;;2.30;;
10059;SDS011;5069;49.306;8.636;2023-05-07T00:05:08;3.13;;;2.50;;
10059;SDS011;5069;49.306;8.636;2023-05-07T00:08:10;6.10;;;2.40;;
10059;SDS011;5069;49.306;8.636;2023-05-07T00:11:12;9.03;;;2.30;;
10059;SDS011;5069;49.306;8.636;2023-05-07T00:14:13;2.80;;;2.30;;
10059;SDS011;5069;49.306;8.636;2023-05-07T00:17:15;4.77;;;2.33;;
10059;SDS011;5069;49.306;8.636;2023-05-07T00:20:16;4.07;;;2.10;;
10059;SDS011;5069;49.306;8.636;2023-05-07T00:23:18;5.03;;;2.70;;
10059;SDS011;5069;49.306;8.636;2023-05-07T00:26:19;2.50;;;2.30;;
10059;SDS011;5069;49.306;8.636;2023-05-07T00:29:23;3.27;;;2.07;;
10059;SDS011;5069;49.306;8.636;2023-05-07T00:32:25;5.77;;;2.10;;
10059;SDS011;5069;49.306;8.636;2023-05-07T00:35:27;5.93;;;2.20;;
10059;SDS011;5069;49.306;8.636;2023-05-07T00:38:32;4.70;;;2.83;;
10059;SDS011;5069;49.306;8.636;2023-05-07T00:41:33;3.03;;;2.30;;
10059;SDS011;5069;49.306;8.636;2023-05-07T00:44:35;3.00;;;2.30;;
10059;SDS011;5069;49.306;8.636;2023-05-07T00:47:36;2.47;;;2.27;;
10059;SDS011;5069;49.306;8.636;2023-05-07T00:50:38;2.77;;;2.50;;
10059;SDS011;5069;49.306;8.636;2023-05-07T00:53:39;3.50;;;2.20;;
10059;SDS011;5069;49.306;8.636;2023-05-07T00:56:41;2.47;;;2.17;;
10059;SDS011;5069;49.306;8.636;2023-05-07T00:59:43;2.97;;;2.10;;
10059;SDS011;5069;49.306;8.636;2023-05-07T01:02:44;3.63;;;2.10;;
10059;SDS011;5069;49.306;8.636;2023-05-07T01:05:46;3.10;;;2.23;;
10059;SDS011;5069;49.306;8.636;2023-05-07T01:08:50;3.83;;;2.10;;
10059;SDS011;5069;49.306;8.636;2023-05-07T01:11:53;2.87;;;2.23;;
10059;SDS011;5069;49.306;8.636;2023-05-07T01:14:58;3.53;;;2.50;;
10059;SDS011;5069;49.306;8.636;2023-05-07T01:18:00;2.80;;;2.37;;
10059;SDS011;5069;49.306;8.636;2023-05-07T01:21:07;2.70;;;2.37;;
10059;SDS011;5069;49.306;8.636;2023-05-07T01:24:12;4.50;;;2.40;;
10059;SDS011;5069;49.306;8.636;2023-05-07T01:27:13;3.20;;;2.20;;
10059;SDS011;5069;49.306;8.636;2023-05-07T01:30:15;7.83;;;2.40;;
10059;SDS011;5069;49.306;8.636;2023-05-07T01:33:21;3.23;;;2.40;;
10059;SDS011;5069;49.306;8.636;2023-05-07T01:36:23;2.40;;;2.20;;
10059;SDS011;5069;49.306;8.636;2023-05-07T01:39:28;4.63;;;2.20;;
10059;SDS011;5069;49.306;8.636;2023-05-07T01:42:31;2.97;;;2.00;;
10059;SDS011;5069;49.306;8.636;2023-05-07T01:45:33;2.30;;;2.10;;
10059;SDS011;5069;49.306;8.636;2023-05-07T01:48:35;2.63;;;2.40;;
10059;SDS011;5069;49.306;8.636;2023-05-07T01:51:37;2.80;;;2.20;;
10059;SDS011;5069;49.306;8.636;2023-05-07T01:54:40;4.60;;;2.47;;
10059;SDS011;5069;49.306;8.636;2023-05-07T01:57:41;3.50;;;2.40;;
10059;SDS011;5069;49.306;8.636;2023-05-07T02:00:42;3.30;;;2.17;;
10059;SDS011;5069;49.306;8.636;2023-05-07T02:03:44;4.20;;;2.30;;
10059;SDS011;5069;49.306;8.636;2023-05-07T02:06:53;3.67;;;2.30;;
10059;SDS011;5069;49.306;8.636;2023-05-07T02:09:55;3.73;;;2.37;;
10059;SDS011;5069;49.306;8.636;2023-05-07T02:12:56;2.13;;;1.90;;
10059;SDS011;5069;49.306;8.636;2023-05-07T02:15:58;2.00;;;1.80;;
10059;SDS011;5069;49.306;8.636;2023-05-07T02:19:01;2.63;;;1.80;;
10059;SDS011;5069;49.306;8.636;2023-05-07T02:22:02;3.80;;;2.30;;
10059;SDS011;5069;49.306;8.636;2023-05-07T02:25:04;5.00;;;2.23;;
10059;SDS011;5069;49.306;8.636;2023-05-07T02:28:06;2.57;;;2.30;;
10059;SDS011;5069;49.306;8.636;2023-05-07T02:31:23;3.17;;;2.10;;
10059;SDS011;5069;49.306;8.636;2023-05-07T02:34:24;3.00;;;2.60;;
10059;SDS011;5069;49.306;8.636;2023-05-07T02:37:26;3.90;;;2.50;;
10059;SDS011;5069;49.306;8.636;2023-05-07T02:40:28;2.50;;;2.10;;
10059;SDS011;5069;49.306;8.636;2023-05-07T02:43:29;7.20;;;2.50;;
10059;SDS011;5069;49.306;8.636;2023-05-07T02:46:31;5.87;;;2.43;;
10059;SDS011;5069;49.306;8.636;2023-05-07T02:49:40;4.43;;;2.83;;
10059;SDS011;5069;49.306;8.636;2023-05-07T02:52:42;6.57;;;2.70;;
10059;SDS011;5069;49.306;8.636;2023-05-07T02:55:44;4.10;;;2.40;;
10059;SDS011;5069;49.306;8.636;2023-05-07T02:58:45;3.13;;;2.30;;
10059;SDS011;5069;49.306;8.636;2023-05-07T03:01:48;2.57;;;2.37;;
10059;SDS011;5069;49.306;8.636;2023-05-07T03:04:50;4.03;;;2.60;;
10059;SDS011;5069;49.306;8.636;2023-05-07T03:07:52;4.03;;;2.27;;
10059;SDS011;5069;49.306;8.636;2023-05-07T03:10:54;4.90;;;2.40;;
10059;SDS011;5069;49.306;8.636;2023-05-07T03:13:55;2.60;;;2.40;;
10059;SDS011;5069;49.306;8.636;2023-05-07T03:16:57;3.40;;;2.83;;
10059;SDS011;5069;49.306;8.636;2023-05-07T03:19:58;4.00;;;2.93;;
10059;SDS011;5069;49.306;8.636;2023-05-07T03:23:00;3.33;;;2.80;;
10059;SDS011;5069;49.306;8.636;2023-05-07T03:26:02;3.97;;;2.70;;
10059;SDS011;5069;49.306;8.636;2023-05-07T03:29:04;4.37;;;2.90;;
10059;SDS011;5069;49.306;8.636;2023-05-07T03:32:05;2.77;;;2.57;;
10059;SDS011;5069;49.306;8.636;2023-05-07T03:35:07;3.60;;;2.57;;
10059;SDS011;5069;49.306;8.636;2023-05-07T03:38:09;3.00;;;2.77;;
10059;SDS011;5069;49.306;8.636;2023-05-07T03:41:12;2.53;;;2.33;;
10059;SDS011;5069;49.306;8.636;2023-05-07T03:44:13;3.90;;;2.67;;
10059;SDS011;5069;49.306;8.636;2023-05-07T03:47:15;3.70;;;2.80;;
10059;SDS011;5069;49.306;8.636;2023-05-07T03:50:18;4.70;;;2.83;;
10059;SDS011;5069;49.306;8.636;2023-05-07T03:53:19;4.07;;;2.93;;
10059;SDS011;5069;49.306;8.636;2023-05-07T03:56:21;5.43;;;3.10;;
10059;SDS011;5069;49.306;8.636;2023-05-07T03:59:27;6.03;;;3.33;;
10059;SDS011;5069;49.306;8.636;2023-05-07T04:02:30;4.37;;;3.00;;
10059;SDS011;5069;49.306;8.636;2023-05-07T04:05:32;3.80;;;3.20;;
10059;SDS011;5069;49.306;8.636;2023-05-07T04:08:36;5.30;;;3.60;;
10059;SDS011;5069;49.306;8.636;2023-05-07T04:11:39;3.87;;;3.37;;
10059;SDS011;5069;49.306;8.636;2023-05-07T04:14:44;5.57;;;4.20;;
10059;SDS011;5069;49.306;8.636;2023-05-07T04:17:47;5.63;;;4.00;;
10059;SDS011;5069;49.306;8.636;2023-05-07T04:20:50;4.80;;;3.67;;
10059;SDS011;5069;49.306;8.636;2023-05-07T04:23:52;5.27;;;3.80;;
10059;SDS011;5069;49.306;8.636;2023-05-07T04:26:54;5.43;;;3.63;;
10059;SDS011;5069;49.306;8.636;2023-05-07T04:29:56;7.13;;;3.77;;
10059;SDS011;5069;49.306;8.636;2023-05-07T04:32:59;5.10;;;4.47;;
10059;SDS011;5069;49.306;8.636;2023-05-07T04:36:03;5.90;;;4.30;;
10059;SDS011;5069;49.306;8.636;2023-05-07T04:39:10;4.33;;;3.93;;
10059;SDS011;5069;49.306;8.636;2023-05-07T04:42:15;5.03;;;4.53;;
10059;SDS011;5069;49.306;8.636;2023-05-07T04:45:18;6.47;;;4.43;;
10059;SDS011;5069;49.306;8.636;2023-05-07T04:48:21;5.73;;;4.60;;
10059;SDS011;5069;49.306;8.636;2023-05-07T04:51:24;5.80;;;4.60;;
10059;SDS011;5069;49.306;8.636;2023-05-07T04:54:27;6.53;;;4.40;;
10059;SDS011;5069;49.306;8.636;2023-05-07T04:57:28;5.00;;;4.30;;
10059;SDS011;5069;49.306;8.636;2023-05-07T05:00:30;5.90;;;4.43;;
10059;SDS011;5069;49.306;8.636;2023-05-07T05:03:33;5.37;;;3.77;;
10059;SDS011;5069;49.306;8.636;2023-05-07T05:06:35;4.47;;;3.90;;
10059;SDS011;5069;49.306;8.636;2023-05-07T05:09:38;6.67;;;3.70;;
10059;SDS011;5069;49.306;8.636;2023-05-07T05:12:40;4.90;;;3.00;;
10059;SDS011;5069;49.306;8.636;2023-05-07T05:15:41;3.60;;;3.00;;
10059;SDS011;5069;49.306;8.636;2023-05-07T05:18:44;3.27;;;2.80;;
10059;SDS011;5069;49.306;8.636;2023-05-07T05:21:48;2.90;;;2.60;;
10059;SDS011;5069;49.306;8.636;2023-05-07T05:24:49;11.63;;;2.97;;
10059;SDS011;5069;49.306;8.636;2023-05-07T05:27:51;6.07;;;3.10;;
10059;SDS011;5069;49.306;8.636;2023-05-07T05:30:53;4.47;;;3.13;;
10059;SDS011;5069;49.306;8.636;2023-05-07T05:33:57;5.03;;;3.07;;
10059;SDS011;5069;49.306;8.636;2023-05-07T05:36:59;5.93;;;3.40;;
10059;SDS011;5069;49.306;8.636;2023-05-07T05:40:01;2.77;;;2.10;;
10059;SDS011;5069;49.306;8.636;2023-05-07T05:43:04;1.77;;;1.50;;
10059;SDS011;5069;49.306;8.636;2023-05-07T05:46:06;1.70;;;1.60;;
10059;SDS011;5069;49.306;8.636;2023-05-07T05:49:09;2.20;;;1.87;;
10059;SDS011;5069;49.306;8.636;2023-05-07T05:52:12;2.83;;;1.70;;
10059;SDS011;5069;49.306;8.636;2023-05-07T05:55:15;6.03;;;1.90;;
10059;SDS011;5069;49.306;8.636;2023-05-07T05:58:16;2.00;;;1.63;;
10059;SDS011;5069;49.306;8.636;2023-05-07T06:01:25;4.77;;;1.70;;
10059;SDS011;5069;49.306;8.636;2023-05-07T06:04:28;3.73;;;1.90;;
10059;SDS011;5069;49.306;8.636;2023-05-07T06:07:31;3.57;;;1.90;;
10059;SDS011;5069;49.306;8.636;2023-05-07T06:10:32;3.17;;;1.80;;
10059;SDS011;5069;49.306;8.636;2023-05-07T06:13:34;2.50;;;2.23;;
10059;SDS011;5069;49.306;8.636;2023-05-07T06:16:36;3.40;;;2.10;;
10059;SDS011;5069;49.306;8.636;2023-05-07T06:19:41;2.27;;;1.80;;
10059;SDS011;5069;49.306;8.636;2023-05-07T06:22:43;2.67;;;1.80;;
10059;SDS011;5069;49.306;8.636;2023-05-07T06:25:49;4.07;;;2.00;;
10059;SDS011;5069;49.306;8.636;2023-05-07T06:28:58;5.17;;;2.17;;
10059;SDS011;5069;49.306;8.636;2023-05-07T06:32:06;3.97;;;2.40;;
10059;SDS011;5069;49.306;8.636;2023-05-07T06:35:13;4.43;;;2.10;;
10059;SDS011;5069;49.306;8.636;2023-05-07T06:38:15;2.20;;;1.60;;
10059;SDS011;5069;49.306;8.636;2023-05-07T06:41:18;5.60;;;2.10;;
10059;SDS011;5069;49.306;8.636;2023-05-07T06:44:20;2.90;;;1.80;;
10059;SDS011;5069;49.306;8.636;2023-05-07T06:47:32;4.63;;;1.97;;
10059;SDS011;5069;49.306;8.636;2023-05-07T06:50:33;2.23;;;1.80;;
10059;SDS011;5069;49.306;8.636;2023-05-07T06:53:35;2.43;;;1.90;;
10059;SDS011;5069;49.306;8.636;2023-05-07T06:56:38;4.87;;;2.10;;
10059;SDS011;5069;49.306;8.636;2023-05-07T06:59:39;3.77;;;2.00;;
10059;SDS011;5069;49.306;8.636;2023-05-07T07:02:41;1.70;;;1.60;;
10059;SDS011;5069;49.306;8.636;2023-05-07T07:05:44;3.00;;;2.10;;
10059;SDS011;5069;49.306;8.636;2023-05-07T07:08:46;2.60;;;2.00;;
10059;SDS011;5069;49.306;8.636;2023-05-07T07:11:50;2.00;;;1.87;;
10059;SDS011;5069;49.306;8.636;2023-05-07T07:14:53;2.47;;;2.27;;
10059;SDS011;5069;49.306;8.636;2023-05-07T07:17:56;3.60;;;1.90;;
10059;SDS011;5069;49.306;8.636;2023-05-07T07:20:58;2.77;;;2.03;;
10059;SDS011;5069;49.306;8.636;2023-05-07T07:24:01;2.70;;;2.00;;
10059;SDS011;5069;49.306;8.636;2023-05-07T07:27:02;2.40;;;2.20;;
10059;SDS011;5069;49.306;8.636;2023-05-07T07:30:05;4.87;;;2.60;;
10059;SDS011;5069;49.306;8.636;2023-05-07T07:33:10;2.80;;;2.00;;
10059;SDS011;5069;49.306;8.636;2023-05-07T07:36:12;3.60;;;2.57;;
10059;SDS011;5069;49.306;8.636;2023-05-07T07:39:14;2.60;;;2.10;;
10059;SDS011;5069;49.306;8.636;2023-05-07T07:42:18;2.30;;;2.10;;
10059;SDS011;5069;49.306;8.636;2023-05-07T07:45:20;2.53;;;2.10;;
10059;SDS011;5069;49.306;8.636;2023-05-07T07:48:24;3.10;;;2.33;;
10059;SDS011;5069;49.306;8.636;2023-05-07T07:51:25;3.03;;;2.30;;
10059;SDS011;5069;49.306;8.636;2023-05-07T07:54:28;2.40;;;2.20;;
10059;SDS011;5069;49.306;8.636;2023-05-07T07:57:30;2.83;;;2.20;;
10059;SDS011;5069;49.306;8.636;2023-05-07T08:00:32;4.10;;;2.20;;
10059;SDS011;5069;49.306;8.636;2023-05-07T08:03:34;2.30;;;2.10;;
10059;SDS011;5069;49.306;8.636;2023-05-07T08:06:37;2.33;;;2.10;;
10059;SDS011;5069;49.306;8.636;2023-05-07T08:09:40;3.77;;;2.10;;
10059;SDS011;5069;49.306;8.636;2023-05-07T08:12:43;2.30;;;1.90;;
10059;SDS011;5069;49.306;8.636;2023-05-07T08:15:45;4.13;;;2.17;;
10059;SDS011;5069;49.306;8.636;2023-05-07T08:18:48;2.50;;;2.00;;
10059;SDS011;5069;49.306;8.636;2023-05-07T08:21:50;4.47;;;2.00;;
10059;SDS011;5069;49.306;8.636;2023-05-07T08:24:52;4.97;;;2.00;;
10059;SDS011;5069;49.306;8.636;2023-05-07T08:27:54;4.17;;;1.90;;
10059;SDS011;5069;49.306;8.636;2023-05-07T08:30:57;2.00;;;1.90;;
10059;SDS011;5069;49.306;8.636;2023-05-07T08:34:03;2.07;;;1.87;;
10059;SDS011;5069;49.306;8.636;2023-05-07T08:37:04;3.17;;;2.10;;
10059;SDS011;5069;49.306;8.636;2023-05-07T08:40:07;2.20;;;2.00;;
10059;SDS011;5069;49.306;8.636;2023-05-07T08:43:13;2.93;;;2.17;;
10059;SDS011;5069;49.306;8.636;2023-05-07T08:46:21;2.43;;;1.90;;
10059;SDS011;5069;49.306;8.636;2023-05-07T08:49:28;3.60;;;2.20;;
10059;SDS011;5069;49.306;8.636;2023-05-07T08:52:30;3.23;;;2.30;;
10059;SDS011;5069;49.306;8.636;2023-05-07T08:55:32;4.23;;;2.20;;
10059;SDS011;5069;49.306;8.636;2023-05-07T08:58:34;3.00;;;2.20;;
10059;SDS011;5069;49.306;8.636;2023-05-07T09:01:37;3.03;;;2.27;;
10059;SDS011;5069;49.306;8.636;2023-05-07T09:04:40;2.63;;;2.43;;
10059;SDS011;5069;49.306;8.636;2023-05-07T09:07:42;3.27;;;2.20;;
10059;SDS011;5069;49.306;8.636;2023-05-07T09:10:44;3.90;;;2.27;;
10059;SDS011;5069;49.306;8.636;2023-05-07T09:13:46;3.13;;;2.30;;
10059;SDS011;5069;49.306;8.636;2023-05-07T09:16:47;3.00;;;2.20;;
10059;SDS011;5069;49.306;8.636;2023-05-07T09:19:49;2.57;;;2.30;;
10059;SDS011;5069;49.306;8.636;2023-05-07T09:22:51;2.90;;;2.30;;
10059;SDS011;5069;49.306;8.636;2023-05-07T09:25:53;2.93;;;2.20;;
10059;SDS011;5069;49.306;8.636;2023-05-07T09:29:03;2.73;;;1.97;;
10059;SDS011;5069;49.306;8.636;2023-05-07T09:32:05;2.50;;;2.03;;
10059;SDS011;5069;49.306;8.636;2023-05-07T09:35:14;5.33;;;2.20;;
10059;SDS011;5069;49.306;8.636;2023-05-07T09:38:19;2.50;;;2.30;;
10059;SDS011;5069;49.306;8.636;2023-05-07T09:41:25;2.67;;;2.00;;
10059;SDS011;5069;49.306;8.636;2023-05-07T09:44:35;4.13;;;2.20;;
10059;SDS011;5069;49.306;8.636;2023-05-07T09:47:40;4.07;;;2.10;;
10059;SDS011;5069;49.306;8.636;2023-05-07T09:50:48;3.37;;;1.97;;
10059;SDS011;5069;49.306;8.636;2023-05-07T09:53:56;3.17;;;2.10;;
10059;SDS011;5069;49.306;8.636;2023-05-07T09:57:02;2.33;;;2.13;;
10059;SDS011;5069;49.306;8.636;2023-05-07T10:00:05;2.50;;;2.23;;
10059;SDS011;5069;49.306;8.636;2023-05-07T10:03:20;2.23;;;2.03;;
10059;SDS011;5069;49.306;8.636;2023-05-07T10:06:31;3.37;;;2.17;;
10059;SDS011;5069;49.306;8.636;2023-05-07T10:09:33;3.57;;;2.17;;
10059;SDS011;5069;49.306;8.636;2023-05-07T10:12:41;4.13;;;2.00;;
10059;SDS011;5069;49.306;8.636;2023-05-07T10:15:49;2.27;;;1.93;;
10059;SDS011;5069;49.306;8.636;2023-05-07T10:18:53;2.90;;;1.97;;
10059;SDS011;5069;49.306;8.636;2023-05-07T10:21:59;2.43;;;2.20;;
10059;SDS011;5069;49.306;8.636;2023-05-07T10:25:14;3.20;;;2.20;;
10059;SDS011;5069;49.306;8.636;2023-05-07T10:28:19;3.93;;;2.17;;
10059;SDS011;5069;49.306;8.636;2023-05-07T10:34:36;2.22;;;1.98;;
10059;SDS011;5069;49.306;8.636;2023-05-07T10:37:41;2.20;;;2.00;;
10059;SDS011;5069;49.306;8.636;2023-05-07T10:40:43;2.00;;;1.80;;
10059;SDS011;5069;49.306;8.636;2023-05-07T10:43:50;2.30;;;2.10;;
10059;SDS011;5069;49.306;8.636;2023-05-07T10:47:10;2.00;;;1.67;;
10059;SDS011;5069;49.306;8.636;2023-05-07T10:59:45;2.35;;;2.05;;
10059;SDS011;5069;49.306;8.636;2023-05-07T11:06:10;3.85;;;2.13;;
10059;SDS011;5069;49.306;8.636;2023-05-07T11:09:58;3.38;;;2.00;;
10059;SDS011;5069;49.306;8.636;2023-05-07T11:13:19;2.20;;;1.90;;
10059;SDS011;5069;49.306;8.636;2023-05-07T11:16:52;2.20;;;2.00;;
10059;SDS011;5069;49.306;8.636;2023-05-07T11:20:05;2.40;;;2.05;;
10059;SDS011;5069;49.306;8.636;2023-05-07T11:27:02;3.25;;;2.10;;
10059;SDS011;5069;49.306;8.636;2023-05-07T11:30:05;3.05;;;2.00;;
10059;SDS011;5069;49.306;8.636;2023-05-07T11:33:08;2.13;;;1.92;;
10059;SDS011;5069;49.306;8.636;2023-05-07T11:36:11;3.03;;;1.73;;
10059;SDS011;5069;49.306;8.636;2023-05-07T11:39:31;3.13;;;1.80;;
10059;SDS011;5069;49.306;8.636;2023-05-07T11:42:38;1.88;;;1.40;;
10059;SDS011;5069;49.306;8.636;2023-05-07T11:45:41;1.75;;;1.60;;
10059;SDS011;5069;49.306;8.636;2023-05-07T11:48:42;2.28;;;1.90;;
10059;SDS011;5069;49.306;8.636;2023-05-07T11:51:44;2.10;;;1.80;;
10059;SDS011;5069;49.306;8.636;2023-05-07T11:54:50;2.60;;;1.70;;
10059;SDS011;5069;49.306;8.636;2023-05-07T11:57:53;3.28;;;1.80;;
10059;SDS011;5069;49.306;8.636;2023-05-07T12:00:55;3.08;;;1.67;;
10059;SDS011;5069;49.306;8.636;2023-05-07T12:03:56;2.53;;;1.77;;
10059;SDS011;5069;49.306;8.636;2023-05-07T12:06:58;2.55;;;1.70;;
10059;SDS011;5069;49.306;8.636;2023-05-07T12:09:59;4.85;;;1.80;;
10059;SDS011;5069;49.306;8.636;2023-05-07T12:13:13;2.63;;;1.60;;
10059;SDS011;5069;49.306;8.636;2023-05-07T12:16:25;3.47;;;2.22;;
10059;SDS011;5069;49.306;8.636;2023-05-07T12:19:28;2.55;;;2.00;;
10059;SDS011;5069;49.306;8.636;2023-05-07T12:22:30;3.80;;;2.05;;
10059;SDS011;5069;49.306;8.636;2023-05-07T12:25:33;3.63;;;1.90;;
10059;SDS011;5069;49.306;8.636;2023-05-07T12:28:36;2.33;;;1.95;;
10059;SDS011;5069;49.306;8.636;2023-05-07T12:31:42;2.65;;;2.00;;
10059;SDS011;5069;49.306;8.636;2023-05-07T12:34:45;2.20;;;2.00;;
10059;SDS011;5069;49.306;8.636;2023-05-07T12:37:54;3.72;;;1.90;;
10059;SDS011;5069;49.306;8.636;2023-05-07T12:40:57;2.33;;;2.08;;
10059;SDS011;5069;49.306;8.636;2023-05-07T12:43:58;2.40;;;2.10;;
10059;SDS011;5069;49.306;8.636;2023-05-07T12:47:03;3.38;;;1.80;;
10059;SDS011;5069;49.306;8.636;2023-05-07T12:50:06;4.65;;;2.20;;
10059;SDS011;5069;49.306;8.636;2023-05-07T12:53:09;2.53;;;2.08;;
10059;SDS011;5069;49.306;8.636;2023-05-07T12:56:12;3.53;;;2.00;;
10059;SDS011;5069;49.306;8.636;2023-05-07T12:59:17;3.92;;;2.00;;
10059;SDS011;5069;49.306;8.636;2023-05-07T13:02:18;2.25;;;1.88;;
10059;SDS011;5069;49.306;8.636;2023-05-07T13:05:19;3.65;;;1.90;;
10059;SDS011;5069;49.306;8.636;2023-05-07T13:11:37;1.77;;;1.67;;
10059;SDS011;5069;49.306;8.636;2023-05-07T13:14:40;2.22;;;1.80;;
10059;SDS011;5069;49.306;8.636;2023-05-07T13:17:41;2.00;;;1.80;;
10059;SDS011;5069;49.306;8.636;2023-05-07T13:20:43;3.90;;;1.70;;
10059;SDS011;5069;49.306;8.636;2023-05-07T13:23:44;3.35;;;2.22;;
10059;SDS011;5069;49.306;8.636;2023-05-07T13:26:46;2.03;;;1.80;;
10059;SDS011;5069;49.306;8.636;2023-05-07T13:29:47;2.90;;;1.90;;
10059;SDS011;5069;49.306;8.636;2023-05-07T13:32:49;3.17;;;1.90;;
10059;SDS011;5069;49.306;8.636;2023-05-07T13:35:51;2.83;;;1.70;;
10059;SDS011;5069;49.306;8.636;2023-05-07T13:38:52;4.25;;;2.00;;
10059;SDS011;5069;49.306;8.636;2023-05-07T13:41:54;1.80;;;1.70;;
10059;SDS011;5069;49.306;8.636;2023-05-07T13:44:55;2.58;;;1.70;;
10059;SDS011;5069;49.306;8.636;2023-05-07T13:47:57;4.38;;;2.00;;
10059;SDS011;5069;49.306;8.636;2023-05-07T13:50:59;2.78;;;1.90;;
10059;SDS011;5069;49.306;8.636;2023-05-07T13:54:00;2.58;;;2.13;;
10059;SDS011;5069;49.306;8.636;2023-05-07T13:57:02;2.38;;;1.90;;
10059;SDS011;5069;49.306;8.636;2023-05-07T14:00:04;2.22;;;1.90;;
10059;SDS011;5069;49.306;8.636;2023-05-07T14:03:15;3.78;;;2.03;;
10059;SDS011;5069;49.306;8.636;2023-05-07T14:06:17;2.92;;;2.20;;
10059;SDS011;5069;49.306;8.636;2023-05-07T14:09:18;4.10;;;2.00;;
10059;SDS011;5069;49.306;8.636;2023-05-07T14:12:19;9.48;;;1.90;;
10059;SDS011;5069;49.306;8.636;2023-05-07T14:15:21;3.57;;;1.77;;
10059;SDS011;5069;49.306;8.636;2023-05-07T14:18:23;4.67;;;2.40;;
10059;SDS011;5069;49.306;8.636;2023-05-07T14:21:25;3.93;;;2.07;;
10059;SDS011;5069;49.306;8.636;2023-05-07T14:24:27;7.17;;;2.57;;
10059;SDS011;5069;49.306;8.636;2023-05-07T14:27:39;6.07;;;2.63;;
10059;SDS011;5069;49.306;8.636;2023-05-07T14:30:40;7.23;;;2.40;;
10059;SDS011;5069;49.306;8.636;2023-05-07T14:33:41;4.60;;;1.90;;
10059;SDS011;5069;49.306;8.636;2023-05-07T14:36:43;4.53;;;1.63;;
10059;SDS011;5069;49.306;8.636;2023-05-07T14:39:45;6.23;;;2.00;;
10059;SDS011;5069;49.306;8.636;2023-05-07T14:42:50;7.40;;;2.47;;
10059;SDS011;5069;49.306;8.636;2023-05-07T14:45:51;3.93;;;1.73;;
10059;SDS011;5069;49.306;8.636;2023-05-07T14:48:53;4.20;;;1.60;;
10059;SDS011;5069;49.306;8.636;2023-05-07T14:51:56;3.47;;;1.70;;
10059;SDS011;5069;49.306;8.636;2023-05-07T14:55:00;3.83;;;1.63;;
10059;SDS011;5069;49.306;8.636;2023-05-07T14:58:01;5.23;;;1.63;;
10059;SDS011;5069;49.306;8.636;2023-05-07T15:01:03;3.57;;;1.50;;
10059;SDS011;5069;49.306;8.636;2023-05-07T15:04:04;2.30;;;1.47;;
10059;SDS011;5069;49.306;8.636;2023-05-07T15:07:06;5.33;;;1.97;;
10059;SDS011;5069;49.306;8.636;2023-05-07T15:10:08;7.07;;;1.67;;
10059;SDS011;5069;49.306;8.636;2023-05-07T15:13:10;4.43;;;1.60;;
10059;SDS011;5069;49.306;8.636;2023-05-07T15:16:16;5.67;;;1.90;;
10059;SDS011;5069;49.306;8.636;2023-05-07T15:19:17;5.27;;;2.27;;
10059;SDS011;5069;49.306;8.636;2023-05-07T15:22:19;5.13;;;1.77;;
10059;SDS011;5069;49.306;8.636;2023-05-07T15:25:22;3.37;;;1.70;;
10059;SDS011;5069;49.306;8.636;2023-05-07T15:28:24;3.70;;;2.10;;
10059;SDS011;5069;49.306;8.636;2023-05-07T15:31:29;6.23;;;3.10;;
10059;SDS011;5069;49.306;8.636;2023-05-07T15:34:31;7.10;;;3.83;;
10059;SDS011;5069;49.306;8.636;2023-05-07T15:37:32;4.90;;;2.57;;
10059;SDS011;5069;49.306;8.636;2023-05-07T15:40:35;4.20;;;2.60;;
10059;SDS011;5069;49.306;8.636;2023-05-07T15:43:46;7.43;;;3.70;;
10059;SDS011;5069;49.306;8.636;2023-05-07T15:46:49;4.33;;;2.03;;
10059;SDS011;5069;49.306;8.636;2023-05-07T15:49:50;3.40;;;1.83;;
10059;SDS011;5069;49.306;8.636;2023-05-07T15:52:52;4.30;;;2.23;;
10059;SDS011;5069;49.306;8.636;2023-05-07T15:55:54;3.60;;;2.20;;
10059;SDS011;5069;49.306;8.636;2023-05-07T15:58:55;4.47;;;2.13;;
10059;SDS011;5069;49.306;8.636;2023-05-07T16:01:57;3.23;;;1.90;;
10059;SDS011;5069;49.306;8.636;2023-05-07T16:04:59;4.73;;;2.60;;
10059;SDS011;5069;49.306;8.636;2023-05-07T16:08:01;4.10;;;2.47;;
10059;SDS011;5069;49.306;8.636;2023-05-07T16:11:03;4.57;;;2.03;;
10059;SDS011;5069;49.306;8.636;2023-05-07T16:14:05;3.50;;;2.30;;
10059;SDS011;5069;49.306;8.636;2023-05-07T16:17:06;2.80;;;2.30;;
10059;SDS011;5069;49.306;8.636;2023-05-07T16:20:08;4.40;;;2.33;;
10059;SDS011;5069;49.306;8.636;2023-05-07T16:23:13;4.53;;;2.13;;
10059;SDS011;5069;49.306;8.636;2023-05-07T16:26:16;3.40;;;2.27;;
10059;SDS011;5069;49.306;8.636;2023-05-07T16:29:18;2.30;;;1.60;;
10059;SDS011;5069;49.306;8.636;2023-05-07T16:32:23;3.47;;;2.30;;
10059;SDS011;5069;49.306;8.636;2023-05-07T16:35:25;5.53;;;2.30;;
10059;SDS011;5069;49.306;8.636;2023-05-07T16:38:27;3.30;;;2.20;;
10059;SDS011;5069;49.306;8.636;2023-05-07T16:41:33;4.57;;;2.30;;
10059;SDS011;5069;49.306;8.636;2023-05-07T16:44:34;5.33;;;2.00;;
10059;SDS011;5069;49.306;8.636;2023-05-07T16:47:36;2.13;;;1.70;;
10059;SDS011;5069;49.306;8.636;2023-05-07T16:50:38;2.97;;;2.33;;
10059;SDS011;5069;49.306;8.636;2023-05-07T16:53:39;4.77;;;2.10;;
10059;SDS011;5069;49.306;8.636;2023-05-07T16:56:41;3.80;;;2.27;;
10059;SDS011;5069;49.306;8.636;2023-05-07T16:59:44;2.80;;;1.90;;
10059;SDS011;5069;49.306;8.636;2023-05-07T17:02:45;1.90;;;1.60;;
10059;SDS011;5069;49.306;8.636;2023-05-07T17:05:47;5.53;;;2.00;;
10059;SDS011;5069;49.306;8.636;2023-05-07T17:08:48;5.30;;;2.20;;
10059;SDS011;5069;49.306;8.636;2023-05-07T17:11:52;5.37;;;2.30;;
10059;SDS011;5069;49.306;8.636;2023-05-07T17:14:55;4.30;;;2.20;;
10059;SDS011;5069;49.306;8.636;2023-05-07T17:17:57;3.33;;;1.90;;
10059;SDS011;5069;49.306;8.636;2023-05-07T17:20:58;5.23;;;2.23;;
10059;SDS011;5069;49.306;8.636;2023-05-07T17:24:01;4.13;;;2.17;;
10059;SDS011;5069;49.306;8.636;2023-05-07T17:27:02;3.57;;;2.30;;
10059;SDS011;5069;49.306;8.636;2023-05-07T17:30:05;2.93;;;2.57;;
10059;SDS011;5069;49.306;8.636;2023-05-07T17:33:07;3.00;;;1.90;;
10059;SDS011;5069;49.306;8.636;2023-05-07T17:36:21;7.20;;;2.10;;
10059;SDS011;5069;49.306;8.636;2023-05-07T17:39:24;9.13;;;2.40;;
10059;SDS011;5069;49.306;8.636;2023-05-07T17:42:25;3.53;;;1.90;;
10059;SDS011;5069;49.306;8.636;2023-05-07T17:45:27;2.90;;;2.37;;
10059;SDS011;5069;49.306;8.636;2023-05-07T17:48:29;4.17;;;2.97;;
10059;SDS011;5069;49.306;8.636;2023-05-07T17:51:31;9.07;;;3.17;;
10059;SDS011;5069;49.306;8.636;2023-05-07T17:54:52;8.03;;;4.60;;
10059;SDS011;5069;49.306;8.636;2023-05-07T17:57:54;6.10;;;3.20;;
10059;SDS011;5069;49.306;8.636;2023-05-07T18:00:56;4.07;;;2.30;;
10059;SDS011;5069;49.306;8.636;2023-05-07T18:03:58;3.00;;;2.40;;
10059;SDS011;5069;49.306;8.636;2023-05-07T18:06:59;4.70;;;3.20;;
10059;SDS011;5069;49.306;8.636;2023-05-07T18:10:01;4.20;;;2.83;;
10059;SDS011;5069;49.306;8.636;2023-05-07T18:13:03;4.67;;;3.20;;
10059;SDS011;5069;49.306;8.636;2023-05-07T18:16:04;4.00;;;2.83;;
10059;SDS011;5069;49.306;8.636;2023-05-07T18:19:07;4.37;;;2.57;;
10059;SDS011;5069;49.306;8.636;2023-05-07T18:22:09;4.80;;;2.63;;
10059;SDS011;5069;49.306;8.636;2023-05-07T18:25:11;4.20;;;2.40;;
10059;SDS011;5069;49.306;8.636;2023-05-07T18:28:12;3.50;;;2.47;;
10059;SDS011;5069;49.306;8.636;2023-05-07T18:31:14;2.80;;;2.30;;
10059;SDS011;5069;49.306;8.636;2023-05-07T18:34:16;2.40;;;2.20;;
10059;SDS011;5069;49.306;8.636;2023-05-07T18:37:17;2.90;;;2.13;;
10059;SDS011;5069;49.306;8.636;2023-05-07T18:40:18;3.07;;;2.07;;
10059;SDS011;5069;49.306;8.636;2023-05-07T18:43:22;3.07;;;2.10;;
10059;SDS011;5069;49.306;8.636;2023-05-07T18:46:23;2.17;;;1.97;;
10059;SDS011;5069;49.306;8.636;2023-05-07T18:49:25;3.63;;;2.00;;
10059;SDS011;5069;49.306;8.636;2023-05-07T18:52:26;5.10;;;2.17;;
10059;SDS011;5069;49.306;8.636;2023-05-07T18:55:29;4.57;;;2.23;;
10059;SDS011;5069;49.306;8.636;2023-05-07T18:58:31;3.97;;;2.20;;
10059;SDS011;5069;49.306;8.636;2023-05-07T19:01:34;6.63;;;2.30;;
10059;SDS011;5069;49.306;8.636;2023-05-07T19:04:37;5.53;;;2.30;;